気象予報士の航空気象 今日は雨?

*All archives   *Admin

2010.01.31 (Sun)

今日は雨?

 大阪国際女子マラソンを見ています。


雨降ってますよ。


こちら関東は晴れてますよ。


いつから降るのでしょう。


こんなときには、TAFを使うといいですよ。


RJTT 310245Z 3103/0106 16008KT 9999 FEW030
BECMG 3110/3112 36008KT
BECMG 0103/0106 05018KT


RJAA 310425Z 3104/0106 02006KT 9999 SCT030
TEMPO 0100/0106 04015G27KT


 降らないの??



RJNS 310242Z 3103/0106 25010KT 9000 FEW015 SCT025 BKN050
TEMPO 3108/3111 4000 -RA BR
BECMG 3115/3118 36008KT
TEMPO 3118/3121 4000 BR
BECMG 0100/0103 09010KT


静岡は夕方から雨予報。

 
RJGG 310430Z 35005KT 9999 -RA FEW025 BKN045 08/02 Q1018 TEMPO 4000 -RA BR

RJGG 310235Z 3103/0106 34010KT 9999 -RA FEW020 SCT030 BKN050
TEMPO 3105/3112 4000 -RA BR


名古屋はすでに雨。



静岡空港のTAFを考えると、降るとするなら夜7、8時あたりかなぁ。でもたいして降らなさそう。




ブログランキングに参加しています。
にほんブログ村 環境ブログ 天気・気象学へ
にほんブログ村
応援クリックをおねがします。


以下、アフィリエイトサイトです。




スポンサーサイト
14:06  |  気象・天気  |  TB(0)  |  CM(0)  |  EDIT  |  Top↑

コメントを投稿する


 管理者だけに表示  (非公開コメント投稿可能)

▲PageTop

この記事のトラックバックURL

→http://weathereucalyptus.blog115.fc2.com/tb.php/377-2f7e4f32
この記事にトラックバックする(FC2ブログユーザー)

この記事へのトラックバック

▲PageTop

 | BLOGTOP |